sensor_id;sensor_type;location;lat;lon;timestamp;temperature;humidity
18446;DHT22;9352;50.888;4.466;2024-01-11T00:00:09;-2.50;99.90
18446;DHT22;9352;50.888;4.466;2024-01-11T00:02:37;-2.50;99.90
18446;DHT22;9352;50.888;4.466;2024-01-11T00:05:05;-2.50;99.90
18446;DHT22;9352;50.888;4.466;2024-01-11T00:07:32;-2.50;99.90
18446;DHT22;9352;50.888;4.466;2024-01-11T00:10:00;-2.50;99.90
18446;DHT22;9352;50.888;4.466;2024-01-11T00:12:27;-2.50;99.90
18446;DHT22;9352;50.888;4.466;2024-01-11T00:14:54;-2.50;99.90
18446;DHT22;9352;50.888;4.466;2024-01-11T00:17:21;-2.50;99.90
18446;DHT22;9352;50.888;4.466;2024-01-11T00:19:49;-2.50;99.90
18446;DHT22;9352;50.888;4.466;2024-01-11T00:22:16;-2.50;99.90
18446;DHT22;9352;50.888;4.466;2024-01-11T00:24:43;-2.50;99.90
18446;DHT22;9352;50.888;4.466;2024-01-11T00:27:10;-2.50;99.90
18446;DHT22;9352;50.888;4.466;2024-01-11T00:29:37;-2.50;99.90
18446;DHT22;9352;50.888;4.466;2024-01-11T00:32:04;-2.50;99.90
18446;DHT22;9352;50.888;4.466;2024-01-11T00:34:31;-2.50;99.90
18446;DHT22;9352;50.888;4.466;2024-01-11T00:36:59;-2.50;99.90
18446;DHT22;9352;50.888;4.466;2024-01-11T00:39:26;-2.50;99.90
18446;DHT22;9352;50.888;4.466;2024-01-11T00:41:54;-2.50;99.90
18446;DHT22;9352;50.888;4.466;2024-01-11T00:44:21;-2.50;99.90
18446;DHT22;9352;50.888;4.466;2024-01-11T00:46:48;-2.60;99.90
18446;DHT22;9352;50.888;4.466;2024-01-11T00:49:15;-2.60;99.90
18446;DHT22;9352;50.888;4.466;2024-01-11T00:51:42;-2.60;99.90
18446;DHT22;9352;50.888;4.466;2024-01-11T00:54:11;-2.60;99.90
18446;DHT22;9352;50.888;4.466;2024-01-11T00:56:38;-2.60;99.90
18446;DHT22;9352;50.888;4.466;2024-01-11T00:59:04;-2.70;99.90
18446;DHT22;9352;50.888;4.466;2024-01-11T01:01:31;-2.60;99.90
18446;DHT22;9352;50.888;4.466;2024-01-11T01:03:58;-2.70;99.90
18446;DHT22;9352;50.888;4.466;2024-01-11T01:06:25;-2.60;99.90
18446;DHT22;9352;50.888;4.466;2024-01-11T01:08:53;-2.60;99.90
18446;DHT22;9352;50.888;4.466;2024-01-11T01:11:21;-2.70;99.90
18446;DHT22;9352;50.888;4.466;2024-01-11T01:13:48;-2.70;99.90
18446;DHT22;9352;50.888;4.466;2024-01-11T01:16:15;-2.60;99.90
18446;DHT22;9352;50.888;4.466;2024-01-11T01:18:43;-2.70;99.90
18446;DHT22;9352;50.888;4.466;2024-01-11T01:21:10;-2.70;99.90
18446;DHT22;9352;50.888;4.466;2024-01-11T01:23:37;-2.70;99.90
18446;DHT22;9352;50.888;4.466;2024-01-11T01:26:03;-2.70;99.90
18446;DHT22;9352;50.888;4.466;2024-01-11T01:28:32;-2.70;99.90
18446;DHT22;9352;50.888;4.466;2024-01-11T01:30:59;-2.80;99.90
18446;DHT22;9352;50.888;4.466;2024-01-11T01:33:26;-2.80;99.90
18446;DHT22;9352;50.888;4.466;2024-01-11T01:35:52;-2.80;99.90
18446;DHT22;9352;50.888;4.466;2024-01-11T01:38:19;-2.70;99.90
18446;DHT22;9352;50.888;4.466;2024-01-11T01:40:46;-2.80;99.90
18446;DHT22;9352;50.888;4.466;2024-01-11T01:43:13;-2.80;99.90
18446;DHT22;9352;50.888;4.466;2024-01-11T01:45:41;-2.80;99.90
18446;DHT22;9352;50.888;4.466;2024-01-11T01:48:08;-2.80;99.90
18446;DHT22;9352;50.888;4.466;2024-01-11T01:50:35;-2.80;99.90
18446;DHT22;9352;50.888;4.466;2024-01-11T01:53:03;-2.80;99.90
18446;DHT22;9352;50.888;4.466;2024-01-11T01:55:30;-2.80;99.90
18446;DHT22;9352;50.888;4.466;2024-01-11T01:57:58;-2.90;99.90
18446;DHT22;9352;50.888;4.466;2024-01-11T02:00:26;-2.90;99.90
18446;DHT22;9352;50.888;4.466;2024-01-11T02:02:55;-2.90;99.90
18446;DHT22;9352;50.888;4.466;2024-01-11T02:05:23;-2.90;99.90
18446;DHT22;9352;50.888;4.466;2024-01-11T02:07:50;-2.90;99.90
18446;DHT22;9352;50.888;4.466;2024-01-11T02:10:19;-2.90;99.90
18446;DHT22;9352;50.888;4.466;2024-01-11T02:12:45;-2.90;99.90
18446;DHT22;9352;50.888;4.466;2024-01-11T02:15:13;-3.00;99.90
18446;DHT22;9352;50.888;4.466;2024-01-11T02:17:41;-3.00;99.90
18446;DHT22;9352;50.888;4.466;2024-01-11T02:20:10;-3.00;99.90
18446;DHT22;9352;50.888;4.466;2024-01-11T02:22:40;-3.00;99.90
18446;DHT22;9352;50.888;4.466;2024-01-11T02:25:09;-3.10;99.90
18446;DHT22;9352;50.888;4.466;2024-01-11T02:27:46;-3.10;99.90
18446;DHT22;9352;50.888;4.466;2024-01-11T02:30:13;-3.00;99.90
18446;DHT22;9352;50.888;4.466;2024-01-11T02:32:41;-3.10;99.90
18446;DHT22;9352;50.888;4.466;2024-01-11T02:35:10;-3.10;99.90
18446;DHT22;9352;50.888;4.466;2024-01-11T02:37:37;-3.10;99.90
18446;DHT22;9352;50.888;4.466;2024-01-11T02:40:06;-3.10;99.90
18446;DHT22;9352;50.888;4.466;2024-01-11T02:42:36;-3.10;99.90
18446;DHT22;9352;50.888;4.466;2024-01-11T02:45:03;-3.10;99.90
18446;DHT22;9352;50.888;4.466;2024-01-11T02:47:30;-3.10;99.90
18446;DHT22;9352;50.888;4.466;2024-01-11T02:49:57;-3.10;99.90
18446;DHT22;9352;50.888;4.466;2024-01-11T02:52:24;-3.20;99.90
18446;DHT22;9352;50.888;4.466;2024-01-11T02:54:51;-3.10;99.90
18446;DHT22;9352;50.888;4.466;2024-01-11T02:57:18;-3.20;99.90
18446;DHT22;9352;50.888;4.466;2024-01-11T02:59:46;-3.20;99.90
18446;DHT22;9352;50.888;4.466;2024-01-11T03:02:13;-3.20;99.90
18446;DHT22;9352;50.888;4.466;2024-01-11T03:04:40;-3.20;99.90
18446;DHT22;9352;50.888;4.466;2024-01-11T03:07:06;-3.20;99.90
18446;DHT22;9352;50.888;4.466;2024-01-11T03:09:33;-3.20;99.90
18446;DHT22;9352;50.888;4.466;2024-01-11T03:12:00;-3.30;99.90
18446;DHT22;9352;50.888;4.466;2024-01-11T03:14:27;-3.30;99.90
18446;DHT22;9352;50.888;4.466;2024-01-11T03:16:55;-3.30;99.90
18446;DHT22;9352;50.888;4.466;2024-01-11T03:19:22;-3.20;99.90
18446;DHT22;9352;50.888;4.466;2024-01-11T03:21:49;-3.20;99.90
18446;DHT22;9352;50.888;4.466;2024-01-11T03:24:16;-3.30;99.90
18446;DHT22;9352;50.888;4.466;2024-01-11T03:26:43;-3.30;99.90
18446;DHT22;9352;50.888;4.466;2024-01-11T03:29:10;-3.30;99.90
18446;DHT22;9352;50.888;4.466;2024-01-11T03:31:37;-3.40;99.90
18446;DHT22;9352;50.888;4.466;2024-01-11T03:34:08;-3.40;99.90
18446;DHT22;9352;50.888;4.466;2024-01-11T03:36:35;-3.40;99.90
18446;DHT22;9352;50.888;4.466;2024-01-11T03:39:02;-3.30;99.90
18446;DHT22;9352;50.888;4.466;2024-01-11T03:41:29;-3.30;99.90
18446;DHT22;9352;50.888;4.466;2024-01-11T03:43:56;-3.40;99.90
18446;DHT22;9352;50.888;4.466;2024-01-11T03:46:23;-3.30;99.90
18446;DHT22;9352;50.888;4.466;2024-01-11T03:48:50;-3.30;99.90
18446;DHT22;9352;50.888;4.466;2024-01-11T03:51:18;-3.30;99.90
18446;DHT22;9352;50.888;4.466;2024-01-11T03:53:45;-3.30;99.90
18446;DHT22;9352;50.888;4.466;2024-01-11T03:56:11;-3.40;99.90
18446;DHT22;9352;50.888;4.466;2024-01-11T03:58:38;-3.40;99.90
18446;DHT22;9352;50.888;4.466;2024-01-11T04:01:07;-3.40;99.90
18446;DHT22;9352;50.888;4.466;2024-01-11T04:03:35;-3.50;99.90
18446;DHT22;9352;50.888;4.466;2024-01-11T04:06:03;-3.50;99.90
18446;DHT22;9352;50.888;4.466;2024-01-11T04:08:31;-3.50;99.90
18446;DHT22;9352;50.888;4.466;2024-01-11T04:11:01;-3.50;99.90
18446;DHT22;9352;50.888;4.466;2024-01-11T04:13:28;-3.50;99.90
18446;DHT22;9352;50.888;4.466;2024-01-11T04:15:55;-3.50;99.90
18446;DHT22;9352;50.888;4.466;2024-01-11T04:18:22;-3.50;99.90
18446;DHT22;9352;50.888;4.466;2024-01-11T04:20:49;-3.50;99.90
18446;DHT22;9352;50.888;4.466;2024-01-11T04:23:16;-3.60;99.90
18446;DHT22;9352;50.888;4.466;2024-01-11T04:25:44;-3.60;99.90
18446;DHT22;9352;50.888;4.466;2024-01-11T04:28:11;-3.50;99.90
18446;DHT22;9352;50.888;4.466;2024-01-11T04:30:38;-3.60;99.90
18446;DHT22;9352;50.888;4.466;2024-01-11T04:33:05;-3.60;99.90
18446;DHT22;9352;50.888;4.466;2024-01-11T04:35:32;-3.60;99.90
18446;DHT22;9352;50.888;4.466;2024-01-11T04:37:58;-3.60;99.90
18446;DHT22;9352;50.888;4.466;2024-01-11T04:40:26;-3.70;99.90
18446;DHT22;9352;50.888;4.466;2024-01-11T04:42:53;-3.70;99.90
18446;DHT22;9352;50.888;4.466;2024-01-11T04:45:20;-3.70;99.90
18446;DHT22;9352;50.888;4.466;2024-01-11T04:47:49;-3.70;99.90
18446;DHT22;9352;50.888;4.466;2024-01-11T04:50:16;-3.70;99.90
18446;DHT22;9352;50.888;4.466;2024-01-11T04:52:43;-3.70;99.90
18446;DHT22;9352;50.888;4.466;2024-01-11T04:55:10;-3.70;99.90
18446;DHT22;9352;50.888;4.466;2024-01-11T04:57:37;-3.70;99.90
18446;DHT22;9352;50.888;4.466;2024-01-11T05:00:07;-3.70;99.90
18446;DHT22;9352;50.888;4.466;2024-01-11T05:02:34;-3.70;99.90
18446;DHT22;9352;50.888;4.466;2024-01-11T05:05:01;-3.70;99.90
18446;DHT22;9352;50.888;4.466;2024-01-11T05:07:28;-3.70;99.90
18446;DHT22;9352;50.888;4.466;2024-01-11T05:09:55;-3.70;99.90
18446;DHT22;9352;50.888;4.466;2024-01-11T05:12:21;-3.70;99.90
18446;DHT22;9352;50.888;4.466;2024-01-11T05:14:48;-3.70;99.90
18446;DHT22;9352;50.888;4.466;2024-01-11T05:17:17;-3.70;99.90
18446;DHT22;9352;50.888;4.466;2024-01-11T05:19:43;-3.70;99.90
18446;DHT22;9352;50.888;4.466;2024-01-11T05:22:10;-3.80;99.90
18446;DHT22;9352;50.888;4.466;2024-01-11T05:24:37;-3.70;99.90
18446;DHT22;9352;50.888;4.466;2024-01-11T05:27:04;-3.80;99.90
18446;DHT22;9352;50.888;4.466;2024-01-11T05:29:31;-3.70;99.90
18446;DHT22;9352;50.888;4.466;2024-01-11T05:31:58;-3.80;99.90
18446;DHT22;9352;50.888;4.466;2024-01-11T05:34:26;-3.80;99.90
18446;DHT22;9352;50.888;4.466;2024-01-11T05:36:53;-3.80;99.90
18446;DHT22;9352;50.888;4.466;2024-01-11T05:39:20;-3.80;99.90
18446;DHT22;9352;50.888;4.466;2024-01-11T05:41:47;-3.70;99.90
18446;DHT22;9352;50.888;4.466;2024-01-11T05:44:14;-3.80;99.90
18446;DHT22;9352;50.888;4.466;2024-01-11T05:46:41;-3.80;99.90
18446;DHT22;9352;50.888;4.466;2024-01-11T05:49:07;-3.80;99.90
18446;DHT22;9352;50.888;4.466;2024-01-11T05:51:36;-3.80;99.90
18446;DHT22;9352;50.888;4.466;2024-01-11T05:54:03;-3.80;99.90
18446;DHT22;9352;50.888;4.466;2024-01-11T05:56:30;-3.80;99.90
18446;DHT22;9352;50.888;4.466;2024-01-11T05:58:56;-3.80;99.90
18446;DHT22;9352;50.888;4.466;2024-01-11T06:01:24;-3.80;99.90
18446;DHT22;9352;50.888;4.466;2024-01-11T06:03:51;-3.90;99.90
18446;DHT22;9352;50.888;4.466;2024-01-11T06:06:18;-3.90;99.90
18446;DHT22;9352;50.888;4.466;2024-01-11T06:08:47;-3.90;99.90
18446;DHT22;9352;50.888;4.466;2024-01-11T06:11:14;-3.90;99.90
18446;DHT22;9352;50.888;4.466;2024-01-11T06:13:41;-3.90;99.90
18446;DHT22;9352;50.888;4.466;2024-01-11T06:16:08;-3.90;99.90
18446;DHT22;9352;50.888;4.466;2024-01-11T06:18:35;-3.90;99.90
18446;DHT22;9352;50.888;4.466;2024-01-11T06:21:02;-4.00;99.90
18446;DHT22;9352;50.888;4.466;2024-01-11T06:23:29;-4.00;99.90
18446;DHT22;9352;50.888;4.466;2024-01-11T06:25:57;-4.00;99.90
18446;DHT22;9352;50.888;4.466;2024-01-11T06:28:24;-4.00;99.90
18446;DHT22;9352;50.888;4.466;2024-01-11T06:30:51;-4.10;99.90
18446;DHT22;9352;50.888;4.466;2024-01-11T06:33:19;-4.00;99.90
18446;DHT22;9352;50.888;4.466;2024-01-11T06:35:46;-4.00;99.90
18446;DHT22;9352;50.888;4.466;2024-01-11T06:38:13;-4.00;99.90
18446;DHT22;9352;50.888;4.466;2024-01-11T06:40:40;-3.90;99.90
18446;DHT22;9352;50.888;4.466;2024-01-11T06:43:09;-4.00;99.90
18446;DHT22;9352;50.888;4.466;2024-01-11T06:45:37;-4.00;99.90
18446;DHT22;9352;50.888;4.466;2024-01-11T06:48:05;-4.00;99.90
18446;DHT22;9352;50.888;4.466;2024-01-11T06:50:32;-4.00;99.90
18446;DHT22;9352;50.888;4.466;2024-01-11T06:52:59;-4.00;99.90
18446;DHT22;9352;50.888;4.466;2024-01-11T06:55:26;-3.90;99.90
18446;DHT22;9352;50.888;4.466;2024-01-11T06:57:55;-3.60;99.90
18446;DHT22;9352;50.888;4.466;2024-01-11T07:00:24;-3.70;99.90
18446;DHT22;9352;50.888;4.466;2024-01-11T07:02:51;-3.70;99.90
18446;DHT22;9352;50.888;4.466;2024-01-11T07:05:19;-3.80;99.90
18446;DHT22;9352;50.888;4.466;2024-01-11T07:07:46;-3.80;99.90
18446;DHT22;9352;50.888;4.466;2024-01-11T07:10:13;-3.80;99.90
18446;DHT22;9352;50.888;4.466;2024-01-11T07:12:41;-3.80;99.90
18446;DHT22;9352;50.888;4.466;2024-01-11T07:15:09;-3.80;99.90
18446;DHT22;9352;50.888;4.466;2024-01-11T07:17:37;-3.80;99.90
18446;DHT22;9352;50.888;4.466;2024-01-11T07:20:05;-3.80;99.90
18446;DHT22;9352;50.888;4.466;2024-01-11T07:22:33;-3.80;99.90
18446;DHT22;9352;50.888;4.466;2024-01-11T07:25:00;-3.80;99.90
18446;DHT22;9352;50.888;4.466;2024-01-11T07:27:27;-3.80;99.90
18446;DHT22;9352;50.888;4.466;2024-01-11T07:29:54;-3.80;99.90
18446;DHT22;9352;50.888;4.466;2024-01-11T07:32:21;-3.80;99.90
18446;DHT22;9352;50.888;4.466;2024-01-11T07:34:49;-3.80;99.90
18446;DHT22;9352;50.888;4.466;2024-01-11T07:37:16;-3.80;99.90
18446;DHT22;9352;50.888;4.466;2024-01-11T07:39:43;-3.80;99.90
18446;DHT22;9352;50.888;4.466;2024-01-11T07:42:09;-3.80;99.90
18446;DHT22;9352;50.888;4.466;2024-01-11T07:44:36;-3.80;99.90
18446;DHT22;9352;50.888;4.466;2024-01-11T07:47:03;-3.80;99.90
18446;DHT22;9352;50.888;4.466;2024-01-11T07:49:30;-3.80;99.90
18446;DHT22;9352;50.888;4.466;2024-01-11T07:51:58;-3.80;99.90
18446;DHT22;9352;50.888;4.466;2024-01-11T07:54:25;-3.80;99.90
18446;DHT22;9352;50.888;4.466;2024-01-11T07:56:52;-3.90;99.90
18446;DHT22;9352;50.888;4.466;2024-01-11T07:59:19;-3.90;99.90
18446;DHT22;9352;50.888;4.466;2024-01-11T08:01:46;-3.90;99.90
18446;DHT22;9352;50.888;4.466;2024-01-11T08:04:13;-3.90;99.90
18446;DHT22;9352;50.888;4.466;2024-01-11T08:06:40;-3.80;99.90
18446;DHT22;9352;50.888;4.466;2024-01-11T08:09:09;-3.90;99.90
18446;DHT22;9352;50.888;4.466;2024-01-11T08:11:35;-3.90;99.90
18446;DHT22;9352;50.888;4.466;2024-01-11T08:14:02;-3.90;99.90
18446;DHT22;9352;50.888;4.466;2024-01-11T08:16:31;-3.90;99.90
18446;DHT22;9352;50.888;4.466;2024-01-11T08:18:57;-3.80;99.90
18446;DHT22;9352;50.888;4.466;2024-01-11T08:21:26;-3.80;99.90
18446;DHT22;9352;50.888;4.466;2024-01-11T08:23:53;-3.80;99.90
18446;DHT22;9352;50.888;4.466;2024-01-11T08:26:22;-3.80;99.90
18446;DHT22;9352;50.888;4.466;2024-01-11T08:28:49;-3.90;99.90
18446;DHT22;9352;50.888;4.466;2024-01-11T08:31:16;-3.90;99.90
18446;DHT22;9352;50.888;4.466;2024-01-11T08:33:43;-3.90;99.90
18446;DHT22;9352;50.888;4.466;2024-01-11T08:36:09;-3.80;99.90
18446;DHT22;9352;50.888;4.466;2024-01-11T08:38:37;-3.80;99.90
18446;DHT22;9352;50.888;4.466;2024-01-11T08:41:04;-3.80;99.90
18446;DHT22;9352;50.888;4.466;2024-01-11T08:43:33;-3.70;99.90
18446;DHT22;9352;50.888;4.466;2024-01-11T08:46:00;-3.80;99.90
18446;DHT22;9352;50.888;4.466;2024-01-11T08:48:27;-3.80;99.90
18446;DHT22;9352;50.888;4.466;2024-01-11T08:50:55;-3.80;99.90
18446;DHT22;9352;50.888;4.466;2024-01-11T08:53:21;-3.70;99.90
18446;DHT22;9352;50.888;4.466;2024-01-11T08:55:48;-3.60;99.90
18446;DHT22;9352;50.888;4.466;2024-01-11T08:58:15;-3.60;99.90
18446;DHT22;9352;50.888;4.466;2024-01-11T09:00:43;-3.50;99.90
18446;DHT22;9352;50.888;4.466;2024-01-11T09:03:10;-3.60;99.90
18446;DHT22;9352;50.888;4.466;2024-01-11T09:05:39;-3.60;99.90
18446;DHT22;9352;50.888;4.466;2024-01-11T09:08:06;-3.60;99.90
18446;DHT22;9352;50.888;4.466;2024-01-11T09:10:33;-3.60;99.90
18446;DHT22;9352;50.888;4.466;2024-01-11T09:13:00;-3.50;99.90
18446;DHT22;9352;50.888;4.466;2024-01-11T09:15:27;-3.40;99.90
18446;DHT22;9352;50.888;4.466;2024-01-11T09:17:56;-3.40;99.90
18446;DHT22;9352;50.888;4.466;2024-01-11T09:20:22;-3.40;99.90
18446;DHT22;9352;50.888;4.466;2024-01-11T09:22:49;-3.30;99.90
18446;DHT22;9352;50.888;4.466;2024-01-11T09:25:16;-3.40;99.90
18446;DHT22;9352;50.888;4.466;2024-01-11T09:27:43;-3.30;99.90
18446;DHT22;9352;50.888;4.466;2024-01-11T09:30:10;-3.30;99.90
18446;DHT22;9352;50.888;4.466;2024-01-11T09:32:38;-3.30;99.90
18446;DHT22;9352;50.888;4.466;2024-01-11T09:35:07;-3.20;99.90
18446;DHT22;9352;50.888;4.466;2024-01-11T09:37:34;-3.20;99.90
18446;DHT22;9352;50.888;4.466;2024-01-11T09:40:01;-3.10;99.90
18446;DHT22;9352;50.888;4.466;2024-01-11T09:42:29;-3.10;99.90
18446;DHT22;9352;50.888;4.466;2024-01-11T09:44:56;-3.10;99.90
18446;DHT22;9352;50.888;4.466;2024-01-11T09:47:24;-3.20;99.90
18446;DHT22;9352;50.888;4.466;2024-01-11T09:49:53;-3.20;99.90
18446;DHT22;9352;50.888;4.466;2024-01-11T09:52:22;-3.20;99.90
18446;DHT22;9352;50.888;4.466;2024-01-11T09:54:51;-3.20;99.90
18446;DHT22;9352;50.888;4.466;2024-01-11T09:57:24;-3.10;99.90
18446;DHT22;9352;50.888;4.466;2024-01-11T09:59:54;-2.90;99.90
18446;DHT22;9352;50.888;4.466;2024-01-11T10:02:23;-2.90;99.90
18446;DHT22;9352;50.888;4.466;2024-01-11T10:04:50;-2.80;99.90
18446;DHT22;9352;50.888;4.466;2024-01-11T10:07:18;-2.70;99.90
18446;DHT22;9352;50.888;4.466;2024-01-11T10:09:47;-2.70;99.90
18446;DHT22;9352;50.888;4.466;2024-01-11T10:12:14;-2.70;99.90
18446;DHT22;9352;50.888;4.466;2024-01-11T10:14:41;-2.60;99.90
18446;DHT22;9352;50.888;4.466;2024-01-11T10:17:08;-2.50;99.90
18446;DHT22;9352;50.888;4.466;2024-01-11T10:19:35;-2.50;99.90
18446;DHT22;9352;50.888;4.466;2024-01-11T10:22:03;-2.40;99.90
18446;DHT22;9352;50.888;4.466;2024-01-11T10:24:30;-2.30;99.90
18446;DHT22;9352;50.888;4.466;2024-01-11T10:26:58;-2.30;99.90
18446;DHT22;9352;50.888;4.466;2024-01-11T10:29:30;-2.10;99.90
18446;DHT22;9352;50.888;4.466;2024-01-11T10:31:57;-2.00;99.90
18446;DHT22;9352;50.888;4.466;2024-01-11T10:34:24;-1.80;99.90
18446;DHT22;9352;50.888;4.466;2024-01-11T10:36:52;-1.70;99.90
18446;DHT22;9352;50.888;4.466;2024-01-11T10:39:24;-1.70;99.90
18446;DHT22;9352;50.888;4.466;2024-01-11T10:41:55;-1.50;99.90
18446;DHT22;9352;50.888;4.466;2024-01-11T10:44:25;-1.20;99.90
18446;DHT22;9352;50.888;4.466;2024-01-11T10:46:55;-1.10;99.90
18446;DHT22;9352;50.888;4.466;2024-01-11T10:49:23;-1.20;99.90
18446;DHT22;9352;50.888;4.466;2024-01-11T10:51:58;-1.40;99.90
18446;DHT22;9352;50.888;4.466;2024-01-11T10:54:27;-1.30;99.90
18446;DHT22;9352;50.888;4.466;2024-01-11T10:56:56;-1.00;99.90
18446;DHT22;9352;50.888;4.466;2024-01-11T10:59:27;-0.70;99.90
18446;DHT22;9352;50.888;4.466;2024-01-11T11:01:54;-0.20;99.90
18446;DHT22;9352;50.888;4.466;2024-01-11T11:04:22;0.30;99.90
18446;DHT22;9352;50.888;4.466;2024-01-11T11:06:51;0.50;99.90
18446;DHT22;9352;50.888;4.466;2024-01-11T11:09:20;0.40;99.90
18446;DHT22;9352;50.888;4.466;2024-01-11T11:11:49;0.50;99.90
18446;DHT22;9352;50.888;4.466;2024-01-11T11:14:16;0.50;99.90
18446;DHT22;9352;50.888;4.466;2024-01-11T11:16:44;0.10;99.90
18446;DHT22;9352;50.888;4.466;2024-01-11T11:19:11;0.00;99.90
18446;DHT22;9352;50.888;4.466;2024-01-11T11:21:42;0.10;99.90
18446;DHT22;9352;50.888;4.466;2024-01-11T11:24:09;-0.20;99.90
18446;DHT22;9352;50.888;4.466;2024-01-11T11:26:37;-0.20;99.90
18446;DHT22;9352;50.888;4.466;2024-01-11T11:29:03;-0.10;99.90
18446;DHT22;9352;50.888;4.466;2024-01-11T11:31:38;-0.10;99.90
18446;DHT22;9352;50.888;4.466;2024-01-11T11:34:06;-0.10;99.90
18446;DHT22;9352;50.888;4.466;2024-01-11T11:36:34;-0.20;99.90
18446;DHT22;9352;50.888;4.466;2024-01-11T11:39:01;-0.50;99.90
18446;DHT22;9352;50.888;4.466;2024-01-11T11:41:30;-0.50;99.90
18446;DHT22;9352;50.888;4.466;2024-01-11T11:44:01;-0.70;99.90
18446;DHT22;9352;50.888;4.466;2024-01-11T11:46:28;-0.60;99.90
18446;DHT22;9352;50.888;4.466;2024-01-11T11:48:56;-0.50;99.90
18446;DHT22;9352;50.888;4.466;2024-01-11T11:51:25;-0.50;99.90
18446;DHT22;9352;50.888;4.466;2024-01-11T11:53:53;-0.40;99.90
18446;DHT22;9352;50.888;4.466;2024-01-11T11:56:21;-0.40;99.90
18446;DHT22;9352;50.888;4.466;2024-01-11T11:58:49;-0.40;99.90
18446;DHT22;9352;50.888;4.466;2024-01-11T12:01:17;-0.30;99.90
18446;DHT22;9352;50.888;4.466;2024-01-11T12:03:45;-0.20;99.90
18446;DHT22;9352;50.888;4.466;2024-01-11T12:06:16;-0.10;99.90
18446;DHT22;9352;50.888;4.466;2024-01-11T12:08:44;-0.10;99.90
18446;DHT22;9352;50.888;4.466;2024-01-11T12:11:15;-0.10;99.90
18446;DHT22;9352;50.888;4.466;2024-01-11T12:13:44;-0.10;99.90
18446;DHT22;9352;50.888;4.466;2024-01-11T12:16:11;0.00;99.90
18446;DHT22;9352;50.888;4.466;2024-01-11T12:18:38;0.00;99.90
18446;DHT22;9352;50.888;4.466;2024-01-11T12:21:05;0.10;99.90
18446;DHT22;9352;50.888;4.466;2024-01-11T12:23:33;0.10;99.90
18446;DHT22;9352;50.888;4.466;2024-01-11T12:26:02;0.20;99.90
18446;DHT22;9352;50.888;4.466;2024-01-11T12:28:31;0.20;99.90
18446;DHT22;9352;50.888;4.466;2024-01-11T12:30:58;0.30;99.90
18446;DHT22;9352;50.888;4.466;2024-01-11T12:33:26;0.40;99.90
18446;DHT22;9352;50.888;4.466;2024-01-11T12:35:53;0.40;99.90
18446;DHT22;9352;50.888;4.466;2024-01-11T12:38:20;0.50;99.90
18446;DHT22;9352;50.888;4.466;2024-01-11T12:40:48;0.50;99.90
18446;DHT22;9352;50.888;4.466;2024-01-11T12:43:16;0.60;99.90
18446;DHT22;9352;50.888;4.466;2024-01-11T12:45:43;0.60;99.90
18446;DHT22;9352;50.888;4.466;2024-01-11T12:48:10;0.70;99.90
18446;DHT22;9352;50.888;4.466;2024-01-11T12:50:39;0.70;99.90
18446;DHT22;9352;50.888;4.466;2024-01-11T12:53:08;0.70;99.90
18446;DHT22;9352;50.888;4.466;2024-01-11T12:55:35;0.80;99.90
18446;DHT22;9352;50.888;4.466;2024-01-11T12:58:06;0.80;99.90
18446;DHT22;9352;50.888;4.466;2024-01-11T13:00:36;0.90;99.90
18446;DHT22;9352;50.888;4.466;2024-01-11T13:03:04;0.80;99.90
18446;DHT22;9352;50.888;4.466;2024-01-11T13:05:31;0.80;99.90
18446;DHT22;9352;50.888;4.466;2024-01-11T13:08:01;0.80;99.90
18446;DHT22;9352;50.888;4.466;2024-01-11T13:10:29;0.90;99.90
18446;DHT22;9352;50.888;4.466;2024-01-11T13:12:58;0.80;99.90
18446;DHT22;9352;50.888;4.466;2024-01-11T13:15:25;0.90;99.90
18446;DHT22;9352;50.888;4.466;2024-01-11T13:17:55;1.00;99.90
18446;DHT22;9352;50.888;4.466;2024-01-11T13:20:22;1.00;99.90
18446;DHT22;9352;50.888;4.466;2024-01-11T13:22:53;1.00;99.90
18446;DHT22;9352;50.888;4.466;2024-01-11T13:25:20;1.00;99.90
18446;DHT22;9352;50.888;4.466;2024-01-11T13:27:47;1.00;99.90
18446;DHT22;9352;50.888;4.466;2024-01-11T13:30:14;1.00;99.90
18446;DHT22;9352;50.888;4.466;2024-01-11T13:32:42;1.10;99.90
18446;DHT22;9352;50.888;4.466;2024-01-11T13:35:10;1.10;99.90
18446;DHT22;9352;50.888;4.466;2024-01-11T13:37:36;1.10;99.90
18446;DHT22;9352;50.888;4.466;2024-01-11T13:40:03;1.20;99.90
18446;DHT22;9352;50.888;4.466;2024-01-11T13:42:30;1.20;99.90
18446;DHT22;9352;50.888;4.466;2024-01-11T13:44:57;1.30;99.90
18446;DHT22;9352;50.888;4.466;2024-01-11T13:47:25;1.30;99.90
18446;DHT22;9352;50.888;4.466;2024-01-11T13:49:52;1.40;99.90
18446;DHT22;9352;50.888;4.466;2024-01-11T13:52:20;1.40;99.90
18446;DHT22;9352;50.888;4.466;2024-01-11T13:54:47;1.40;99.90
18446;DHT22;9352;50.888;4.466;2024-01-11T13:57:14;1.50;99.90
18446;DHT22;9352;50.888;4.466;2024-01-11T13:59:42;1.50;99.90
18446;DHT22;9352;50.888;4.466;2024-01-11T14:02:09;1.50;99.90
18446;DHT22;9352;50.888;4.466;2024-01-11T14:04:35;1.60;99.90
18446;DHT22;9352;50.888;4.466;2024-01-11T14:07:02;1.60;99.90
18446;DHT22;9352;50.888;4.466;2024-01-11T14:09:31;1.60;99.90
18446;DHT22;9352;50.888;4.466;2024-01-11T14:11:58;1.60;99.90
18446;DHT22;9352;50.888;4.466;2024-01-11T14:14:24;1.60;99.90
18446;DHT22;9352;50.888;4.466;2024-01-11T14:16:51;1.70;99.90
18446;DHT22;9352;50.888;4.466;2024-01-11T14:19:18;1.70;99.90
18446;DHT22;9352;50.888;4.466;2024-01-11T14:21:45;1.70;99.90
18446;DHT22;9352;50.888;4.466;2024-01-11T14:24:12;1.70;99.90
18446;DHT22;9352;50.888;4.466;2024-01-11T14:26:40;1.70;99.90
18446;DHT22;9352;50.888;4.466;2024-01-11T14:29:09;1.70;99.90
18446;DHT22;9352;50.888;4.466;2024-01-11T14:31:36;1.70;99.90
18446;DHT22;9352;50.888;4.466;2024-01-11T14:34:04;1.70;99.90
18446;DHT22;9352;50.888;4.466;2024-01-11T14:36:31;1.70;99.90
18446;DHT22;9352;50.888;4.466;2024-01-11T14:38:58;1.70;99.90
18446;DHT22;9352;50.888;4.466;2024-01-11T14:41:25;1.70;99.90
18446;DHT22;9352;50.888;4.466;2024-01-11T14:43:53;1.70;99.90
18446;DHT22;9352;50.888;4.466;2024-01-11T14:46:20;1.70;99.90
18446;DHT22;9352;50.888;4.466;2024-01-11T14:48:47;1.70;99.90
18446;DHT22;9352;50.888;4.466;2024-01-11T14:51:14;1.70;99.90
18446;DHT22;9352;50.888;4.466;2024-01-11T14:53:41;1.60;99.90
18446;DHT22;9352;50.888;4.466;2024-01-11T14:56:08;1.70;99.90
18446;DHT22;9352;50.888;4.466;2024-01-11T14:58:35;1.60;99.90
18446;DHT22;9352;50.888;4.466;2024-01-11T15:01:03;1.60;99.90
18446;DHT22;9352;50.888;4.466;2024-01-11T15:03:30;1.60;99.90
18446;DHT22;9352;50.888;4.466;2024-01-11T15:05:57;1.60;99.90
18446;DHT22;9352;50.888;4.466;2024-01-11T15:08:24;1.50;99.90
18446;DHT22;9352;50.888;4.466;2024-01-11T15:10:51;1.50;99.90
18446;DHT22;9352;50.888;4.466;2024-01-11T15:13:18;1.50;99.90
18446;DHT22;9352;50.888;4.466;2024-01-11T15:15:45;1.50;99.90
18446;DHT22;9352;50.888;4.466;2024-01-11T15:18:13;1.40;99.90
18446;DHT22;9352;50.888;4.466;2024-01-11T15:20:40;1.40;99.90
18446;DHT22;9352;50.888;4.466;2024-01-11T15:23:07;1.40;99.90
18446;DHT22;9352;50.888;4.466;2024-01-11T15:25:34;1.40;99.90
18446;DHT22;9352;50.888;4.466;2024-01-11T15:28:01;1.30;99.90
18446;DHT22;9352;50.888;4.466;2024-01-11T15:30:28;1.30;99.90
18446;DHT22;9352;50.888;4.466;2024-01-11T15:32:55;1.20;99.90
18446;DHT22;9352;50.888;4.466;2024-01-11T15:35:23;1.20;99.90
18446;DHT22;9352;50.888;4.466;2024-01-11T15:37:51;1.20;99.90
18446;DHT22;9352;50.888;4.466;2024-01-11T15:40:19;1.20;99.90
18446;DHT22;9352;50.888;4.466;2024-01-11T15:42:46;1.10;99.90
18446;DHT22;9352;50.888;4.466;2024-01-11T15:45:15;1.00;99.90
18446;DHT22;9352;50.888;4.466;2024-01-11T15:47:42;1.00;99.90
18446;DHT22;9352;50.888;4.466;2024-01-11T15:50:09;0.90;99.90